Flight Track Log - Related Links

Times and Time Zones

All times are in EDT time to prevent confusion due to time zone crossing. See the EJA727 flight status page for this flight to view local times or setup timezone preferences in your user account.

Time Position Orientation Groundspeed Altitude Reporting Facility
EDT Latitude Longitude Course Direction KTS MPH feet Rate Location/Type
Tue 07:25:10 PM 30.1050 -90.0325 358° North 236 272 2,000  Level Houston Center
Tue 07:25:46 PM 30.1408 -90.0322 360° North 228 262 2,500 3,184 Climbing Houston Center
Tue 07:26:48 PM 30.2056 -89.9861 32° Northeast 262 302 7,200 3,919 Climbing Houston Center
Tue 07:27:50 PM 30.2778 -89.9364 31° Northeast 283 326 10,600 2,081 Climbing Houston Center
Tue 07:28:52 PM 30.3681 -89.8736 31° Northeast 365 420 11,500 1,113 Climbing Houston Center
Tue 07:29:54 PM 30.4439 -89.7792 47° Northeast 389 448 12,900 1,403 Climbing Houston Center
Tue 07:30:56 PM 30.5136 -89.6800 51° Northeast 389 448 14,400 2,129 Climbing Houston Center
Tue 07:31:58 PM 30.5683 -89.5658 61° Northeast 406 467 17,300 2,806 Climbing Houston Center
Tue 07:33:00 PM 30.6242 -89.4194 66° East 413 475 20,200 2,390 Climbing Houston Center
Tue 07:34:01 PM 30.6728 -89.2903 66° East 432 497 22,200 1,951 Climbing Houston Center
Tue 07:35:03 PM 30.7222 -89.1572 67° East 448 516 24,200 1,935 Climbing Houston Center
Tue 07:36:05 PM 30.7731 -89.0222 66° East 454 522 26,200 1,790 Climbing Houston Center
Tue 07:37:07 PM 30.8294 -88.8733 66° East 462 532 27,900 1,548 Climbing Houston Center
Tue 07:38:09 PM 30.8811 -88.7347 66° East 467 537 29,400 1,258 Climbing Houston Center
Tue 07:39:11 PM 30.9283 -88.6058 67° East 472 543 30,500 1,113 Climbing Houston Center
Tue 07:40:13 PM 30.9922 -88.4381 66° East 473 544 31,700 1,073 Climbing Houston Center
Tue 07:41:14 PM 31.0439 -88.2975 67° East 473 544 32,700 976 Climbing Houston Center
Tue 07:42:16 PM 31.0939 -88.1592 67° East 468 539 33,700 919 Climbing Houston Center
Tue 07:43:18 PM 31.1469 -88.0225 66° East 464 534 34,600 968 Climbing Houston Center
Tue 07:44:20 PM 31.1967 -87.8869 67° East 456 525 35,700 968 Climbing Houston Center
Tue 07:45:22 PM 31.2500 -87.7550 65° Northeast 456 525 36,600 629 Climbing Houston Center
Tue 07:46:24 PM 31.3481 -87.6197 50° Northeast 460 529 37,000 194 Climbing Houston Center
Tue 07:47:26 PM 31.4308 -87.5067 49° Northeast 460 529 37,000  Level Houston Center
Tue 07:48:27 PM 31.5142 -87.3911 50° Northeast 464 534 37,000 -585 Level Houston Center
Tue 07:49:29 PM 31.5964 -87.2764 50° Northeast 462 532 35,800 -1,403 Descending Houston Center
Tue 07:50:31 PM 31.6822 -87.1561 50° Northeast 480 552 34,100 -1,500 Descending Houston Center
Tue 07:51:33 PM 31.7681 -87.0378 50° Northeast 478 550 32,700 -1,649 Descending Houston Center
Tue 07:52:42 PM 31.8767 -86.8881 49° Northeast 469 540 30,500 -1,953 Descending Atlanta Center
Tue 07:53:42 PM 31.9628 -86.7708 49° Northeast 469 540 28,500 -1,750 Descending Atlanta Center
Tue 07:54:42 PM 32.0506 -86.6706 44° Northeast 469 540 27,000 -1,500 Descending Atlanta Center
Tue 07:55:42 PM 32.1425 -86.5631 45° Northeast 469 540 25,500 -1,450 Descending Atlanta Center
Tue 07:56:42 PM 32.2303 -86.4525 47° Northeast 464 534 24,100 -750 Descending Atlanta Center
Tue 07:57:42 PM 32.3117 -86.3442 48° Northeast 456 525 24,000 -50 Descending Atlanta Center
Tue 07:58:42 PM 32.3969 -86.2381 46° Northeast 446 513 24,000  Level Atlanta Center
Tue 07:59:42 PM 32.4803 -86.1342 46° Northeast 441 507 24,000  Level Atlanta Center
Tue 08:00:42 PM 32.5697 -86.0253 46° Northeast 445 512 24,000  Level Atlanta Center
Tue 08:01:42 PM 32.6547 -85.9214 46° Northeast 445 512 24,000 -650 Level Atlanta Center
Tue 08:02:42 PM 32.7442 -85.8144 45° Northeast 440 506 22,700 -1,700 Descending Atlanta Center
Tue 08:03:42 PM 32.8375 -85.7003 46° Northeast 439 505 20,600 -1,950 Descending Atlanta Center
Tue 08:04:42 PM 32.9119 -85.6003 48° Northeast 439 505 18,800 -1,850 Descending Atlanta Center
Tue 08:05:42 PM 32.9903 -85.5000 47° Northeast 426 490 16,900 -2,300 Descending Atlanta Center
Tue 08:07:42 PM 33.1469 -85.3092 46° Northeast 380 437 11,900 -1,967 Descending Atlanta Center
Tue 08:08:42 PM 33.2144 -85.2231 47° Northeast 364 419 11,000 -450 Descending Atlanta Center
Tue 08:09:42 PM 33.2758 -85.1494 45° Northeast 323 372 11,000 -200 Level Atlanta Center
Tue 08:10:42 PM 33.3553 -85.1181 18° North 293 337 10,600 -850 Descending Atlanta Center
Tue 08:11:42 PM 33.4244 -85.0917 18° North 288 331 9,300 -1,518 Descending Atlanta Center
Tue 08:13:32 PM 33.5667 -85.0167 24° Northeast 278 320 6,300 -1,573 Descending Atlanta TRACON
Tue 08:14:26 PM 33.6167 -84.9833 29° Northeast 277 319 5,000 -1,150 Descending Atlanta TRACON
Tue 08:15:32 PM 33.7000 -84.9333 27° Northeast 274 315 4,000 -500 Descending Atlanta TRACON
Tue 08:16:26 PM 33.7500 -84.8833 40° Northeast 278 320 4,000 -500 Level Atlanta TRACON
Tue 08:17:32 PM 33.7833 -84.8000 64° Northeast 251 289 3,000 -476 Descending Atlanta TRACON
Tue 08:18:32 PM 33.7833 -84.7167 90° East 230 265 3,000  Level Atlanta TRACON
Tue 08:19:26 PM 33.7833 -84.6500 90° East 222 255 3,000 -300 Level Atlanta TRACON
Tue 08:20:32 PM 33.8000 -84.5667 76° East 231 266 2,400 -350 Descending Atlanta TRACON
Tue 08:21:26 PM 33.8333 -84.5167 51° Northeast 207 238 2,300 -105 Descending Atlanta TRACON
Tue 08:22:26 PM 33.8333 -84.4667 90° East 188 216 2,200 -400 Descending Atlanta TRACON
Tue 08:23:26 PM 33.7833 -84.4667 180° South 148 170 1,500 -700 Descending Atlanta TRACON
Tue 08:25:00 PM 33.7667 -84.5167 180° South  Level FlightAware Approximate
Tue 08:32:00 PM 33.7791 -84.5214 180° South  Level Estimated

Login

Don't have an account? Register now (free) for customized features, flight alerts, and more!